<?xml version="1.0" encoding="UTF-8" standalone="no" ?>
<gpx xmlns="http://www.topografix.com/GPX/1/1" xmlns:xsi="http://www.w3.org/2001/XMLSchema-instance" xsi:schemaLocation="http://www.topografix.com/GPX/1/1 http://www.topografix.com/GPX/1/1/gpx.xsd" version="1.1" creator="VisuGPX - https://www.visugpx.com">
  <metadata>
    <name>Vernoy gravel</name>
  </metadata>
  <trk>
    <name><![CDATA[Vernoy gravel]]></name>
    <extensions>
      <line xmlns="http://www.topografix.com/GPX/gpx_style/0/2">
        <color>0000FF</color>
        <width>4</width>
      </line>
    </extensions>
    <trkseg>
      <trkpt lat="47.51852" lon="6.77515">
        <ele>388.8</ele>
        <time>2022-05-02T15:46:12.000Z</time>
      </trkpt>
      <trkpt lat="47.51736" lon="6.77478">
        <ele>391.7</ele>
        <time>2022-05-02T15:46:44.201Z</time>
      </trkpt>
      <trkpt lat="47.51717" lon="6.77566">
        <ele>392.3</ele>
        <time>2022-05-02T15:46:58.613Z</time>
      </trkpt>
      <trkpt lat="47.51487" lon="6.773">
        <ele>376</ele>
        <time>2022-05-02T15:47:26.964Z</time>
      </trkpt>
      <trkpt lat="47.51484" lon="6.7718">
        <ele>375.4</ele>
        <time>2022-05-02T15:47:40.096Z</time>
      </trkpt>
      <trkpt lat="47.51499" lon="6.77083">
        <ele>374</ele>
        <time>2022-05-02T15:47:49.281Z</time>
      </trkpt>
      <trkpt lat="47.51718" lon="6.76517">
        <ele>376.3</ele>
        <time>2022-05-02T15:49:26.732Z</time>
      </trkpt>
      <trkpt lat="47.51824" lon="6.76226">
        <ele>383.4</ele>
        <time>2022-05-02T15:50:33.090Z</time>
      </trkpt>
      <trkpt lat="47.51915" lon="6.76143">
        <ele>383</ele>
        <time>2022-05-02T15:50:54.380Z</time>
      </trkpt>
      <trkpt lat="47.52063" lon="6.76074">
        <ele>375.8</ele>
        <time>2022-05-02T15:51:10.729Z</time>
      </trkpt>
      <trkpt lat="47.52211" lon="6.75929">
        <ele>366.9</ele>
        <time>2022-05-02T15:51:28.819Z</time>
      </trkpt>
      <trkpt lat="47.52236" lon="6.75838">
        <ele>363.1</ele>
        <time>2022-05-02T15:51:35.189Z</time>
      </trkpt>
      <trkpt lat="47.5228" lon="6.7568">
        <ele>355.9</ele>
        <time>2022-05-02T15:51:45.827Z</time>
      </trkpt>
      <trkpt lat="47.52299" lon="6.75549">
        <ele>353</ele>
        <time>2022-05-02T15:51:56.766Z</time>
      </trkpt>
      <trkpt lat="47.52279" lon="6.75502">
        <ele>350.8</ele>
        <time>2022-05-02T15:52:00.328Z</time>
      </trkpt>
      <trkpt lat="47.52232" lon="6.75455">
        <ele>348.9</ele>
        <time>2022-05-02T15:52:07.084Z</time>
      </trkpt>
      <trkpt lat="47.52087" lon="6.75244">
        <ele>337.6</ele>
        <time>2022-05-02T15:52:26.876Z</time>
      </trkpt>
      <trkpt lat="47.5199" lon="6.75159">
        <ele>335</ele>
        <time>2022-05-02T15:52:41.889Z</time>
      </trkpt>
      <trkpt lat="47.51912" lon="6.75116">
        <ele>333.7</ele>
        <time>2022-05-02T15:52:53.996Z</time>
      </trkpt>
      <trkpt lat="47.51873" lon="6.75056">
        <ele>329.4</ele>
        <time>2022-05-02T15:52:59.471Z</time>
      </trkpt>
      <trkpt lat="47.51904" lon="6.74958">
        <ele>328.7</ele>
        <time>2022-05-02T15:53:10.960Z</time>
      </trkpt>
      <trkpt lat="47.51951" lon="6.74808">
        <ele>330.7</ele>
        <time>2022-05-02T15:53:39.097Z</time>
      </trkpt>
      <trkpt lat="47.51969" lon="6.74729">
        <ele>333.4</ele>
        <time>2022-05-02T15:53:59.559Z</time>
      </trkpt>
      <trkpt lat="47.51936" lon="6.74633">
        <ele>329</ele>
        <time>2022-05-02T15:54:06.366Z</time>
      </trkpt>
      <trkpt lat="47.51882" lon="6.74573">
        <ele>329.4</ele>
        <time>2022-05-02T15:54:21.402Z</time>
      </trkpt>
      <trkpt lat="47.51905" lon="6.7441">
        <ele>332.8</ele>
        <time>2022-05-02T15:54:54.160Z</time>
      </trkpt>
      <trkpt lat="47.51937" lon="6.74239">
        <ele>333.8</ele>
        <time>2022-05-02T15:55:21.489Z</time>
      </trkpt>
      <trkpt lat="47.51988" lon="6.74041">
        <ele>335.4</ele>
        <time>2022-05-02T15:55:55.071Z</time>
      </trkpt>
      <trkpt lat="47.52072" lon="6.73925">
        <ele>332.4</ele>
        <time>2022-05-02T15:56:09.859Z</time>
      </trkpt>
      <trkpt lat="47.52161" lon="6.7376">
        <ele>333.5</ele>
        <time>2022-05-02T15:56:42.179Z</time>
      </trkpt>
      <trkpt lat="47.52253" lon="6.73616">
        <ele>334.7</ele>
        <time>2022-05-02T15:57:12.897Z</time>
      </trkpt>
      <trkpt lat="47.52314" lon="6.73566">
        <ele>335.1</ele>
        <time>2022-05-02T15:57:28.396Z</time>
      </trkpt>
      <trkpt lat="47.5238" lon="6.73557">
        <ele>334.2</ele>
        <time>2022-05-02T15:57:38.287Z</time>
      </trkpt>
      <trkpt lat="47.52435" lon="6.7352">
        <ele>335</ele>
        <time>2022-05-02T15:57:52.767Z</time>
      </trkpt>
      <trkpt lat="47.52501" lon="6.73408">
        <ele>334.6</ele>
        <time>2022-05-02T15:58:12.693Z</time>
      </trkpt>
      <trkpt lat="47.52517" lon="6.73298">
        <ele>338.4</ele>
        <time>2022-05-02T15:58:40.678Z</time>
      </trkpt>
      <trkpt lat="47.5252" lon="6.73235">
        <ele>338.1</ele>
        <time>2022-05-02T15:58:48.787Z</time>
      </trkpt>
      <trkpt lat="47.52503" lon="6.73122">
        <ele>338</ele>
        <time>2022-05-02T15:59:04.936Z</time>
      </trkpt>
      <trkpt lat="47.52531" lon="6.72903">
        <ele>339.1</ele>
        <time>2022-05-02T15:59:38.912Z</time>
      </trkpt>
      <trkpt lat="47.52593" lon="6.72845">
        <ele>336.9</ele>
        <time>2022-05-02T15:59:47.969Z</time>
      </trkpt>
      <trkpt lat="47.52672" lon="6.72833">
        <ele>336</ele>
        <time>2022-05-02T16:00:00.167Z</time>
      </trkpt>
      <trkpt lat="47.52704" lon="6.72857">
        <ele>335.2</ele>
        <time>2022-05-02T16:00:04.987Z</time>
      </trkpt>
      <trkpt lat="47.52765" lon="6.72795">
        <ele>338.2</ele>
        <time>2022-05-02T16:00:29.777Z</time>
      </trkpt>
      <trkpt lat="47.52816" lon="6.7276">
        <ele>337.4</ele>
        <time>2022-05-02T16:00:38.096Z</time>
      </trkpt>
      <trkpt lat="47.52852" lon="6.7276">
        <ele>337.2</ele>
        <time>2022-05-02T16:00:45.084Z</time>
      </trkpt>
      <trkpt lat="47.52873" lon="6.72769">
        <ele>336.6</ele>
        <time>2022-05-02T16:00:47.858Z</time>
      </trkpt>
      <trkpt lat="47.52905" lon="6.7279">
        <ele>336.3</ele>
        <time>2022-05-02T16:00:53.435Z</time>
      </trkpt>
      <trkpt lat="47.53109" lon="6.72752">
        <ele>339</ele>
        <time>2022-05-02T16:01:42.662Z</time>
      </trkpt>
      <trkpt lat="47.53167" lon="6.72722">
        <ele>339</ele>
        <time>2022-05-02T16:01:55.602Z</time>
      </trkpt>
      <trkpt lat="47.53228" lon="6.72691">
        <ele>340.2</ele>
        <time>2022-05-02T16:02:11.976Z</time>
      </trkpt>
      <trkpt lat="47.53286" lon="6.72628">
        <ele>340.9</ele>
        <time>2022-05-02T16:02:28.608Z</time>
      </trkpt>
      <trkpt lat="47.53458" lon="6.72682">
        <ele>345.8</ele>
        <time>2022-05-02T16:03:18.334Z</time>
      </trkpt>
      <trkpt lat="47.53516" lon="6.72679">
        <ele>347.5</ele>
        <time>2022-05-02T16:03:35.040Z</time>
      </trkpt>
      <trkpt lat="47.53551" lon="6.72682">
        <ele>348.9</ele>
        <time>2022-05-02T16:03:46.683Z</time>
      </trkpt>
      <trkpt lat="47.5357" lon="6.72682">
        <ele>349.6</ele>
        <time>2022-05-02T16:03:52.723Z</time>
      </trkpt>
      <trkpt lat="47.53638" lon="6.72714">
        <ele>354.1</ele>
        <time>2022-05-02T16:04:21.461Z</time>
      </trkpt>
      <trkpt lat="47.53723" lon="6.72733">
        <ele>350.1</ele>
        <time>2022-05-02T16:04:30.508Z</time>
      </trkpt>
      <trkpt lat="47.53838" lon="6.72733">
        <ele>364.1</ele>
        <time>2022-05-02T16:05:50.426Z</time>
      </trkpt>
      <trkpt lat="47.53919" lon="6.7274">
        <ele>370.7</ele>
        <time>2022-05-02T16:06:28.031Z</time>
      </trkpt>
      <trkpt lat="47.5399" lon="6.72776">
        <ele>372.9</ele>
        <time>2022-05-02T16:06:49.640Z</time>
      </trkpt>
      <trkpt lat="47.54021" lon="6.72817">
        <ele>373.4</ele>
        <time>2022-05-02T16:06:59.477Z</time>
      </trkpt>
      <trkpt lat="47.54039" lon="6.72866">
        <ele>374</ele>
        <time>2022-05-02T16:07:08.764Z</time>
      </trkpt>
      <trkpt lat="47.54075" lon="6.72931">
        <ele>376.2</ele>
        <time>2022-05-02T16:07:27.300Z</time>
      </trkpt>
      <trkpt lat="47.54127" lon="6.73016">
        <ele>379.3</ele>
        <time>2022-05-02T16:07:53.053Z</time>
      </trkpt>
      <trkpt lat="47.54165" lon="6.73046">
        <ele>380.9</ele>
        <time>2022-05-02T16:08:06.802Z</time>
      </trkpt>
      <trkpt lat="47.54216" lon="6.73064">
        <ele>383.7</ele>
        <time>2022-05-02T16:08:26.551Z</time>
      </trkpt>
      <trkpt lat="47.54299" lon="6.73076">
        <ele>387.6</ele>
        <time>2022-05-02T16:08:56.627Z</time>
      </trkpt>
      <trkpt lat="47.54342" lon="6.73091">
        <ele>390.6</ele>
        <time>2022-05-02T16:09:15.060Z</time>
      </trkpt>
      <trkpt lat="47.5456" lon="6.73089">
        <ele>408.2</ele>
        <time>2022-05-02T16:10:55.591Z</time>
      </trkpt>
      <trkpt lat="47.54621" lon="6.73071">
        <ele>409.6</ele>
        <time>2022-05-02T16:11:12.094Z</time>
      </trkpt>
      <trkpt lat="47.54675" lon="6.73087">
        <ele>408.8</ele>
        <time>2022-05-02T16:11:20.214Z</time>
      </trkpt>
      <trkpt lat="47.5471" lon="6.73106">
        <ele>407.6</ele>
        <time>2022-05-02T16:11:24.714Z</time>
      </trkpt>
      <trkpt lat="47.54771" lon="6.73141">
        <ele>404.5</ele>
        <time>2022-05-02T16:11:31.546Z</time>
      </trkpt>
      <trkpt lat="47.54839" lon="6.73157">
        <ele>399.2</ele>
        <time>2022-05-02T16:11:38.249Z</time>
      </trkpt>
      <trkpt lat="47.54898" lon="6.73159">
        <ele>393.5</ele>
        <time>2022-05-02T16:11:43.994Z</time>
      </trkpt>
      <trkpt lat="47.5492" lon="6.73179">
        <ele>390.8</ele>
        <time>2022-05-02T16:11:46.506Z</time>
      </trkpt>
      <trkpt lat="47.54944" lon="6.73202">
        <ele>387.2</ele>
        <time>2022-05-02T16:11:49.289Z</time>
      </trkpt>
      <trkpt lat="47.54967" lon="6.73228">
        <ele>381.9</ele>
        <time>2022-05-02T16:11:52.105Z</time>
      </trkpt>
      <trkpt lat="47.54972" lon="6.73237">
        <ele>380.6</ele>
        <time>2022-05-02T16:11:52.871Z</time>
      </trkpt>
      <trkpt lat="47.54989" lon="6.73267">
        <ele>377.2</ele>
        <time>2022-05-02T16:11:55.445Z</time>
      </trkpt>
      <trkpt lat="47.55023" lon="6.73236">
        <ele>374.6</ele>
        <time>2022-05-02T16:11:59.047Z</time>
      </trkpt>
      <trkpt lat="47.55058" lon="6.73217">
        <ele>374.9</ele>
        <time>2022-05-02T16:12:07.523Z</time>
      </trkpt>
      <trkpt lat="47.55042" lon="6.73147">
        <ele>373.1</ele>
        <time>2022-05-02T16:12:13.314Z</time>
      </trkpt>
      <trkpt lat="47.55032" lon="6.73074">
        <ele>372.5</ele>
        <time>2022-05-02T16:12:20.976Z</time>
      </trkpt>
      <trkpt lat="47.55004" lon="6.7299">
        <ele>371.5</ele>
        <time>2022-05-02T16:12:30.152Z</time>
      </trkpt>
      <trkpt lat="47.54997" lon="6.72936">
        <ele>370.3</ele>
        <time>2022-05-02T16:12:34.626Z</time>
      </trkpt>
      <trkpt lat="47.55006" lon="6.72903">
        <ele>369.2</ele>
        <time>2022-05-02T16:12:37.171Z</time>
      </trkpt>
      <trkpt lat="47.55004" lon="6.72822">
        <ele>366.6</ele>
        <time>2022-05-02T16:12:42.878Z</time>
      </trkpt>
      <trkpt lat="47.55001" lon="6.72787">
        <ele>365.4</ele>
        <time>2022-05-02T16:12:45.300Z</time>
      </trkpt>
      <trkpt lat="47.54995" lon="6.72762">
        <ele>365.1</ele>
        <time>2022-05-02T16:12:47.869Z</time>
      </trkpt>
      <trkpt lat="47.54992" lon="6.72717">
        <ele>364.9</ele>
        <time>2022-05-02T16:12:53.711Z</time>
      </trkpt>
      <trkpt lat="47.54971" lon="6.72686">
        <ele>365</ele>
        <time>2022-05-02T16:13:00.154Z</time>
      </trkpt>
      <trkpt lat="47.54952" lon="6.72651">
        <ele>365.7</ele>
        <time>2022-05-02T16:13:08.252Z</time>
      </trkpt>
      <trkpt lat="47.54928" lon="6.72602">
        <ele>366.8</ele>
        <time>2022-05-02T16:13:19.675Z</time>
      </trkpt>
      <trkpt lat="47.54921" lon="6.72586">
        <ele>367</ele>
        <time>2022-05-02T16:13:22.836Z</time>
      </trkpt>
      <trkpt lat="47.54914" lon="6.72571">
        <ele>367.2</ele>
        <time>2022-05-02T16:13:25.882Z</time>
      </trkpt>
      <trkpt lat="47.54941" lon="6.72522">
        <ele>370.1</ele>
        <time>2022-05-02T16:13:43.698Z</time>
      </trkpt>
      <trkpt lat="47.55018" lon="6.72436">
        <ele>373.2</ele>
        <time>2022-05-02T16:14:12.485Z</time>
      </trkpt>
      <trkpt lat="47.55063" lon="6.72331">
        <ele>373.9</ele>
        <time>2022-05-02T16:14:31.629Z</time>
      </trkpt>
      <trkpt lat="47.55108" lon="6.7231">
        <ele>371.3</ele>
        <time>2022-05-02T16:14:36.240Z</time>
      </trkpt>
      <trkpt lat="47.55144" lon="6.72281">
        <ele>367.4</ele>
        <time>2022-05-02T16:14:40.229Z</time>
      </trkpt>
      <trkpt lat="47.55161" lon="6.72238">
        <ele>368.5</ele>
        <time>2022-05-02T16:14:50.343Z</time>
      </trkpt>
      <trkpt lat="47.55113" lon="6.72132">
        <ele>364.1</ele>
        <time>2022-05-02T16:14:59.056Z</time>
      </trkpt>
      <trkpt lat="47.55091" lon="6.7203">
        <ele>367.6</ele>
        <time>2022-05-02T16:15:25.402Z</time>
      </trkpt>
      <trkpt lat="47.55074" lon="6.71953">
        <ele>371</ele>
        <time>2022-05-02T16:15:47.286Z</time>
      </trkpt>
      <trkpt lat="47.55027" lon="6.71749">
        <ele>374</ele>
        <time>2022-05-02T16:16:25.065Z</time>
      </trkpt>
      <trkpt lat="47.55027" lon="6.717">
        <ele>374</ele>
        <time>2022-05-02T16:16:32.031Z</time>
      </trkpt>
      <trkpt lat="47.5504" lon="6.71619">
        <ele>376.2</ele>
        <time>2022-05-02T16:16:50.484Z</time>
      </trkpt>
      <trkpt lat="47.55067" lon="6.71473">
        <ele>383.4</ele>
        <time>2022-05-02T16:17:33.941Z</time>
      </trkpt>
      <trkpt lat="47.55079" lon="6.71387">
        <ele>388</ele>
        <time>2022-05-02T16:18:00.591Z</time>
      </trkpt>
      <trkpt lat="47.55117" lon="6.71329">
        <ele>392.6</ele>
        <time>2022-05-02T16:18:26.512Z</time>
      </trkpt>
      <trkpt lat="47.55125" lon="6.71283">
        <ele>394.8</ele>
        <time>2022-05-02T16:18:39.960Z</time>
      </trkpt>
      <trkpt lat="47.5511" lon="6.71248">
        <ele>395</ele>
        <time>2022-05-02T16:18:46.267Z</time>
      </trkpt>
      <trkpt lat="47.55063" lon="6.71204">
        <ele>393.9</ele>
        <time>2022-05-02T16:18:53.958Z</time>
      </trkpt>
      <trkpt lat="47.55006" lon="6.7119">
        <ele>392.2</ele>
        <time>2022-05-02T16:19:01.137Z</time>
      </trkpt>
      <trkpt lat="47.54971" lon="6.71121">
        <ele>392</ele>
        <time>2022-05-02T16:19:12.794Z</time>
      </trkpt>
      <trkpt lat="47.5492" lon="6.71031">
        <ele>390</ele>
        <time>2022-05-02T16:19:23.108Z</time>
      </trkpt>
      <trkpt lat="47.54914" lon="6.70986">
        <ele>387.9</ele>
        <time>2022-05-02T16:19:26.122Z</time>
      </trkpt>
      <trkpt lat="47.54919" lon="6.70967">
        <ele>386.8</ele>
        <time>2022-05-02T16:19:27.462Z</time>
      </trkpt>
      <trkpt lat="47.54867" lon="6.70863">
        <ele>381.4</ele>
        <time>2022-05-02T16:19:35.550Z</time>
      </trkpt>
      <trkpt lat="47.54847" lon="6.70846">
        <ele>382.1</ele>
        <time>2022-05-02T16:19:42.277Z</time>
      </trkpt>
      <trkpt lat="47.54807" lon="6.70823">
        <ele>383.8</ele>
        <time>2022-05-02T16:19:56.463Z</time>
      </trkpt>
      <trkpt lat="47.54765" lon="6.70798">
        <ele>383.7</ele>
        <time>2022-05-02T16:20:05.684Z</time>
      </trkpt>
      <trkpt lat="47.54718" lon="6.70755">
        <ele>380.9</ele>
        <time>2022-05-02T16:20:11.289Z</time>
      </trkpt>
      <trkpt lat="47.54694" lon="6.70713">
        <ele>377.3</ele>
        <time>2022-05-02T16:20:14.905Z</time>
      </trkpt>
      <trkpt lat="47.54713" lon="6.70655">
        <ele>374.2</ele>
        <time>2022-05-02T16:20:19.141Z</time>
      </trkpt>
      <trkpt lat="47.54729" lon="6.70582">
        <ele>370.3</ele>
        <time>2022-05-02T16:20:24.184Z</time>
      </trkpt>
      <trkpt lat="47.54743" lon="6.70534">
        <ele>368</ele>
        <time>2022-05-02T16:20:27.368Z</time>
      </trkpt>
      <trkpt lat="47.5474" lon="6.70513">
        <ele>366.2</ele>
        <time>2022-05-02T16:20:28.778Z</time>
      </trkpt>
      <trkpt lat="47.54732" lon="6.70475">
        <ele>363.5</ele>
        <time>2022-05-02T16:20:31.394Z</time>
      </trkpt>
      <trkpt lat="47.5476" lon="6.70443">
        <ele>361.5</ele>
        <time>2022-05-02T16:20:34.809Z</time>
      </trkpt>
      <trkpt lat="47.54766" lon="6.70396">
        <ele>358.8</ele>
        <time>2022-05-02T16:20:37.952Z</time>
      </trkpt>
      <trkpt lat="47.54785" lon="6.70387">
        <ele>358.9</ele>
        <time>2022-05-02T16:20:42.356Z</time>
      </trkpt>
      <trkpt lat="47.54812" lon="6.70366">
        <ele>359</ele>
        <time>2022-05-02T16:20:48.978Z</time>
      </trkpt>
      <trkpt lat="47.54844" lon="6.70328">
        <ele>358.8</ele>
        <time>2022-05-02T16:20:57.015Z</time>
      </trkpt>
      <trkpt lat="47.54853" lon="6.70303">
        <ele>359</ele>
        <time>2022-05-02T16:21:01.470Z</time>
      </trkpt>
      <trkpt lat="47.5486" lon="6.7026">
        <ele>358.3</ele>
        <time>2022-05-02T16:21:05.429Z</time>
      </trkpt>
      <trkpt lat="47.54861" lon="6.70227">
        <ele>357.2</ele>
        <time>2022-05-02T16:21:07.719Z</time>
      </trkpt>
      <trkpt lat="47.5485" lon="6.7018">
        <ele>356.5</ele>
        <time>2022-05-02T16:21:12.306Z</time>
      </trkpt>
      <trkpt lat="47.54843" lon="6.70146">
        <ele>355.3</ele>
        <time>2022-05-02T16:21:14.755Z</time>
      </trkpt>
      <trkpt lat="47.54836" lon="6.70086">
        <ele>354</ele>
        <time>2022-05-02T16:21:19.745Z</time>
      </trkpt>
      <trkpt lat="47.54828" lon="6.70063">
        <ele>353.1</ele>
        <time>2022-05-02T16:21:21.504Z</time>
      </trkpt>
      <trkpt lat="47.54801" lon="6.70018">
        <ele>350.5</ele>
        <time>2022-05-02T16:21:25.204Z</time>
      </trkpt>
      <trkpt lat="47.54803" lon="6.69977">
        <ele>350</ele>
        <time>2022-05-02T16:21:29.124Z</time>
      </trkpt>
      <trkpt lat="47.54795" lon="6.69954">
        <ele>349.8</ele>
        <time>2022-05-02T16:21:31.802Z</time>
      </trkpt>
      <trkpt lat="47.54797" lon="6.69868">
        <ele>350</ele>
        <time>2022-05-02T16:21:44.434Z</time>
      </trkpt>
      <trkpt lat="47.54811" lon="6.69774">
        <ele>350</ele>
        <time>2022-05-02T16:21:58.119Z</time>
      </trkpt>
      <trkpt lat="47.54821" lon="6.69723">
        <ele>350</ele>
        <time>2022-05-02T16:22:05.669Z</time>
      </trkpt>
      <trkpt lat="47.54831" lon="6.69595">
        <ele>352.5</ele>
        <time>2022-05-02T16:22:30.535Z</time>
      </trkpt>
      <trkpt lat="47.54856" lon="6.69554">
        <ele>354.3</ele>
        <time>2022-05-02T16:22:44.115Z</time>
      </trkpt>
      <trkpt lat="47.54918" lon="6.69442">
        <ele>359.6</ele>
        <time>2022-05-02T16:23:21.143Z</time>
      </trkpt>
      <trkpt lat="47.54971" lon="6.69344">
        <ele>353.9</ele>
        <time>2022-05-02T16:23:29.394Z</time>
      </trkpt>
      <trkpt lat="47.54991" lon="6.69212">
        <ele>359.4</ele>
        <time>2022-05-02T16:24:05.440Z</time>
      </trkpt>
      <trkpt lat="47.55039" lon="6.69139">
        <ele>357</ele>
        <time>2022-05-02T16:24:13.521Z</time>
      </trkpt>
      <trkpt lat="47.55081" lon="6.69061">
        <ele>361.8</ele>
        <time>2022-05-02T16:24:42.341Z</time>
      </trkpt>
      <trkpt lat="47.55191" lon="6.68866">
        <ele>381.8</ele>
        <time>2022-05-02T16:26:34.420Z</time>
      </trkpt>
      <trkpt lat="47.55246" lon="6.68797">
        <ele>393.3</ele>
        <time>2022-05-02T16:27:32.968Z</time>
      </trkpt>
      <trkpt lat="47.55306" lon="6.68695">
        <ele>398</ele>
        <time>2022-05-02T16:28:06.926Z</time>
      </trkpt>
      <trkpt lat="47.55414" lon="6.68484">
        <ele>408.6</ele>
        <time>2022-05-02T16:29:17.024Z</time>
      </trkpt>
      <trkpt lat="47.5544" lon="6.68443">
        <ele>412.5</ele>
        <time>2022-05-02T16:29:38.386Z</time>
      </trkpt>
      <trkpt lat="47.55463" lon="6.68351">
        <ele>420.1</ele>
        <time>2022-05-02T16:30:20.755Z</time>
      </trkpt>
      <trkpt lat="47.55469" lon="6.68329">
        <ele>421.8</ele>
        <time>2022-05-02T16:30:30.086Z</time>
      </trkpt>
      <trkpt lat="47.55441" lon="6.68233">
        <ele>435.1</ele>
        <time>2022-05-02T16:31:27.427Z</time>
      </trkpt>
      <trkpt lat="47.5541" lon="6.6817">
        <ele>443.2</ele>
        <time>2022-05-02T16:32:10.175Z</time>
      </trkpt>
      <trkpt lat="47.5538" lon="6.68117">
        <ele>447.9</ele>
        <time>2022-05-02T16:32:35.915Z</time>
      </trkpt>
      <trkpt lat="47.55367" lon="6.68079">
        <ele>451</ele>
        <time>2022-05-02T16:32:52.962Z</time>
      </trkpt>
      <trkpt lat="47.55352" lon="6.68045">
        <ele>453</ele>
        <time>2022-05-02T16:33:04.845Z</time>
      </trkpt>
      <trkpt lat="47.55338" lon="6.6801">
        <ele>455.2</ele>
        <time>2022-05-02T16:33:17.444Z</time>
      </trkpt>
      <trkpt lat="47.55328" lon="6.67977">
        <ele>456.8</ele>
        <time>2022-05-02T16:33:27.455Z</time>
      </trkpt>
      <trkpt lat="47.55297" lon="6.67894">
        <ele>460.5</ele>
        <time>2022-05-02T16:33:52.302Z</time>
      </trkpt>
      <trkpt lat="47.55278" lon="6.67846">
        <ele>461.6</ele>
        <time>2022-05-02T16:34:03.113Z</time>
      </trkpt>
      <trkpt lat="47.55337" lon="6.67744">
        <ele>464.9</ele>
        <time>2022-05-02T16:34:31.760Z</time>
      </trkpt>
      <trkpt lat="47.55372" lon="6.67718">
        <ele>465.4</ele>
        <time>2022-05-02T16:34:41.098Z</time>
      </trkpt>
      <trkpt lat="47.55398" lon="6.67718">
        <ele>466.4</ele>
        <time>2022-05-02T16:34:49.553Z</time>
      </trkpt>
      <trkpt lat="47.55453" lon="6.67729">
        <ele>469.6</ele>
        <time>2022-05-02T16:35:11.073Z</time>
      </trkpt>
      <trkpt lat="47.55459" lon="6.67697">
        <ele>459.9</ele>
        <time>2022-05-02T16:35:13.255Z</time>
      </trkpt>
      <trkpt lat="47.55476" lon="6.67676">
        <ele>456.4</ele>
        <time>2022-05-02T16:35:15.409Z</time>
      </trkpt>
      <trkpt lat="47.55506" lon="6.67618">
        <ele>449.3</ele>
        <time>2022-05-02T16:35:20.210Z</time>
      </trkpt>
      <trkpt lat="47.55533" lon="6.67527">
        <ele>451.9</ele>
        <time>2022-05-02T16:35:42.117Z</time>
      </trkpt>
      <trkpt lat="47.55541" lon="6.67472">
        <ele>454.9</ele>
        <time>2022-05-02T16:35:59.383Z</time>
      </trkpt>
      <trkpt lat="47.55548" lon="6.67401">
        <ele>459</ele>
        <time>2022-05-02T16:36:22.459Z</time>
      </trkpt>
      <trkpt lat="47.55548" lon="6.67133">
        <ele>476.4</ele>
        <time>2022-05-02T16:37:57.990Z</time>
      </trkpt>
      <trkpt lat="47.55536" lon="6.67002">
        <ele>478.7</ele>
        <time>2022-05-02T16:38:22.591Z</time>
      </trkpt>
      <trkpt lat="47.55516" lon="6.66867">
        <ele>489.6</ele>
        <time>2022-05-02T16:39:23.722Z</time>
      </trkpt>
      <trkpt lat="47.55517" lon="6.66847">
        <ele>493.1</ele>
        <time>2022-05-02T16:39:34.717Z</time>
      </trkpt>
      <trkpt lat="47.55485" lon="6.66755">
        <ele>498.1</ele>
        <time>2022-05-02T16:40:04.679Z</time>
      </trkpt>
      <trkpt lat="47.55474" lon="6.6674">
        <ele>497.4</ele>
        <time>2022-05-02T16:40:06.248Z</time>
      </trkpt>
      <trkpt lat="47.55432" lon="6.66663">
        <ele>497.6</ele>
        <time>2022-05-02T16:40:20.718Z</time>
      </trkpt>
      <trkpt lat="47.55428" lon="6.66638">
        <ele>496.9</ele>
        <time>2022-05-02T16:40:22.650Z</time>
      </trkpt>
      <trkpt lat="47.55437" lon="6.66591">
        <ele>489.5</ele>
        <time>2022-05-02T16:40:25.859Z</time>
      </trkpt>
      <trkpt lat="47.55302" lon="6.66261">
        <ele>480.8</ele>
        <time>2022-05-02T16:40:56.914Z</time>
      </trkpt>
      <trkpt lat="47.55295" lon="6.66231">
        <ele>476.2</ele>
        <time>2022-05-02T16:40:59.000Z</time>
      </trkpt>
      <trkpt lat="47.55236" lon="6.66108">
        <ele>460.9</ele>
        <time>2022-05-02T16:41:08.914Z</time>
      </trkpt>
      <trkpt lat="47.55214" lon="6.66094">
        <ele>461.9</ele>
        <time>2022-05-02T16:41:17.082Z</time>
      </trkpt>
      <trkpt lat="47.55156" lon="6.66073">
        <ele>468</ele>
        <time>2022-05-02T16:41:50.490Z</time>
      </trkpt>
      <trkpt lat="47.55121" lon="6.66086">
        <ele>477</ele>
        <time>2022-05-02T16:42:19.804Z</time>
      </trkpt>
      <trkpt lat="47.55085" lon="6.66045">
        <ele>474.8</ele>
        <time>2022-05-02T16:42:24.502Z</time>
      </trkpt>
      <trkpt lat="47.55053" lon="6.66007">
        <ele>475.9</ele>
        <time>2022-05-02T16:42:35.953Z</time>
      </trkpt>
      <trkpt lat="47.54964" lon="6.66076">
        <ele>502.7</ele>
        <time>2022-05-02T16:43:57.558Z</time>
      </trkpt>
      <trkpt lat="47.54679" lon="6.65929">
        <ele>501.8</ele>
        <time>2022-05-02T16:44:58.342Z</time>
      </trkpt>
      <trkpt lat="47.54569" lon="6.6586">
        <ele>501.4</ele>
        <time>2022-05-02T16:45:22.274Z</time>
      </trkpt>
      <trkpt lat="47.54391" lon="6.65634">
        <ele>496.8</ele>
        <time>2022-05-02T16:45:54.766Z</time>
      </trkpt>
      <trkpt lat="47.54283" lon="6.65571">
        <ele>495.9</ele>
        <time>2022-05-02T16:46:13.469Z</time>
      </trkpt>
      <trkpt lat="47.54216" lon="6.65412">
        <ele>484.1</ele>
        <time>2022-05-02T16:46:25.786Z</time>
      </trkpt>
      <trkpt lat="47.54181" lon="6.65361">
        <ele>481.9</ele>
        <time>2022-05-02T16:46:31.033Z</time>
      </trkpt>
      <trkpt lat="47.54075" lon="6.65265">
        <ele>480.7</ele>
        <time>2022-05-02T16:46:50.543Z</time>
      </trkpt>
      <trkpt lat="47.5399" lon="6.65138">
        <ele>472.9</ele>
        <time>2022-05-02T16:47:01.481Z</time>
      </trkpt>
      <trkpt lat="47.53737" lon="6.64958">
        <ele>464.4</ele>
        <time>2022-05-02T16:47:36.041Z</time>
      </trkpt>
      <trkpt lat="47.53676" lon="6.64886">
        <ele>454.5</ele>
        <time>2022-05-02T16:47:43.634Z</time>
      </trkpt>
      <trkpt lat="47.53627" lon="6.6478">
        <ele>430.2</ele>
        <time>2022-05-02T16:47:52.077Z</time>
      </trkpt>
      <trkpt lat="47.53595" lon="6.64786">
        <ele>430.6</ele>
        <time>2022-05-02T16:47:59.741Z</time>
      </trkpt>
      <trkpt lat="47.5337" lon="6.64843">
        <ele>419.1</ele>
        <time>2022-05-02T16:48:22.965Z</time>
      </trkpt>
      <trkpt lat="47.53043" lon="6.64932">
        <ele>405.5</ele>
        <time>2022-05-02T16:48:59.810Z</time>
      </trkpt>
      <trkpt lat="47.52681" lon="6.65274">
        <ele>387.4</ele>
        <time>2022-05-02T16:49:46.840Z</time>
      </trkpt>
      <trkpt lat="47.52538" lon="6.65513">
        <ele>372.9</ele>
        <time>2022-05-02T16:50:07.831Z</time>
      </trkpt>
      <trkpt lat="47.52297" lon="6.65907">
        <ele>367.9</ele>
        <time>2022-05-02T16:51:01.164Z</time>
      </trkpt>
      <trkpt lat="47.5223" lon="6.66071">
        <ele>370.5</ele>
        <time>2022-05-02T16:51:34.574Z</time>
      </trkpt>
      <trkpt lat="47.5214" lon="6.66268">
        <ele>378.7</ele>
        <time>2022-05-02T16:52:34.139Z</time>
      </trkpt>
      <trkpt lat="47.52122" lon="6.66381">
        <ele>378</ele>
        <time>2022-05-02T16:52:46.573Z</time>
      </trkpt>
      <trkpt lat="47.52081" lon="6.6676">
        <ele>378.9</ele>
        <time>2022-05-02T16:53:42.962Z</time>
      </trkpt>
      <trkpt lat="47.52109" lon="6.66894">
        <ele>377</ele>
        <time>2022-05-02T16:53:56.024Z</time>
      </trkpt>
      <trkpt lat="47.52156" lon="6.67392">
        <ele>372.9</ele>
        <time>2022-05-02T16:54:47.683Z</time>
      </trkpt>
      <trkpt lat="47.52167" lon="6.67766">
        <ele>369</ele>
        <time>2022-05-02T16:55:24.545Z</time>
      </trkpt>
      <trkpt lat="47.52124" lon="6.68125">
        <ele>364.3</ele>
        <time>2022-05-02T16:55:58.888Z</time>
      </trkpt>
      <trkpt lat="47.52153" lon="6.68218">
        <ele>361.7</ele>
        <time>2022-05-02T16:56:06.801Z</time>
      </trkpt>
      <trkpt lat="47.52207" lon="6.68411">
        <ele>362</ele>
        <time>2022-05-02T16:56:37.106Z</time>
      </trkpt>
      <trkpt lat="47.52282" lon="6.68621">
        <ele>369</ele>
        <time>2022-05-02T16:57:33.391Z</time>
      </trkpt>
      <trkpt lat="47.52329" lon="6.68703">
        <ele>373</ele>
        <time>2022-05-02T16:58:01.060Z</time>
      </trkpt>
      <trkpt lat="47.52355" lon="6.68756">
        <ele>373.8</ele>
        <time>2022-05-02T16:58:12.227Z</time>
      </trkpt>
      <trkpt lat="47.52448" lon="6.68939">
        <ele>368.2</ele>
        <time>2022-05-02T16:58:30.160Z</time>
      </trkpt>
      <trkpt lat="47.52494" lon="6.69015">
        <ele>365.5</ele>
        <time>2022-05-02T16:58:37.924Z</time>
      </trkpt>
      <trkpt lat="47.52562" lon="6.69172">
        <ele>358.8</ele>
        <time>2022-05-02T16:58:50.433Z</time>
      </trkpt>
      <trkpt lat="47.52614" lon="6.69378">
        <ele>351.8</ele>
        <time>2022-05-02T16:59:05.978Z</time>
      </trkpt>
      <trkpt lat="47.52629" lon="6.69528">
        <ele>346</ele>
        <time>2022-05-02T16:59:15.860Z</time>
      </trkpt>
      <trkpt lat="47.52666" lon="6.69718">
        <ele>347.9</ele>
        <time>2022-05-02T16:59:48.199Z</time>
      </trkpt>
      <trkpt lat="47.52672" lon="6.6977">
        <ele>346.9</ele>
        <time>2022-05-02T16:59:52.689Z</time>
      </trkpt>
      <trkpt lat="47.52807" lon="6.70363">
        <ele>345</ele>
        <time>2022-05-02T17:01:15.954Z</time>
      </trkpt>
      <trkpt lat="47.52817" lon="6.70488">
        <ele>344.1</ele>
        <time>2022-05-02T17:01:29.137Z</time>
      </trkpt>
      <trkpt lat="47.52802" lon="6.70539">
        <ele>343</ele>
        <time>2022-05-02T17:01:33.811Z</time>
      </trkpt>
      <trkpt lat="47.5275" lon="6.70608">
        <ele>343</ele>
        <time>2022-05-02T17:01:48.517Z</time>
      </trkpt>
      <trkpt lat="47.52733" lon="6.70711">
        <ele>346.5</ele>
        <time>2022-05-02T17:02:14.694Z</time>
      </trkpt>
      <trkpt lat="47.52719" lon="6.7085">
        <ele>348.1</ele>
        <time>2022-05-02T17:02:38.332Z</time>
      </trkpt>
      <trkpt lat="47.52783" lon="6.7112">
        <ele>343</ele>
        <time>2022-05-02T17:03:03.134Z</time>
      </trkpt>
      <trkpt lat="47.5278" lon="6.7118">
        <ele>345.3</ele>
        <time>2022-05-02T17:03:18.774Z</time>
      </trkpt>
      <trkpt lat="47.52844" lon="6.71313">
        <ele>345.7</ele>
        <time>2022-05-02T17:03:42.799Z</time>
      </trkpt>
      <trkpt lat="47.5287" lon="6.71369">
        <ele>352.4</ele>
        <time>2022-05-02T17:04:20.079Z</time>
      </trkpt>
      <trkpt lat="47.5278" lon="6.71318">
        <ele>351</ele>
        <time>2022-05-02T17:04:34.288Z</time>
      </trkpt>
      <trkpt lat="47.52629" lon="6.71283">
        <ele>356.7</ele>
        <time>2022-05-02T17:05:23.182Z</time>
      </trkpt>
      <trkpt lat="47.5258" lon="6.71239">
        <ele>355.7</ele>
        <time>2022-05-02T17:05:31.333Z</time>
      </trkpt>
      <trkpt lat="47.52331" lon="6.71142">
        <ele>365.1</ele>
        <time>2022-05-02T17:06:52.809Z</time>
      </trkpt>
      <trkpt lat="47.52094" lon="6.71047">
        <ele>368</ele>
        <time>2022-05-02T17:07:50.797Z</time>
      </trkpt>
      <trkpt lat="47.51851" lon="6.71009">
        <ele>386.8</ele>
        <time>2022-05-02T17:09:40.077Z</time>
      </trkpt>
      <trkpt lat="47.51785" lon="6.71014">
        <ele>392.6</ele>
        <time>2022-05-02T17:10:12.418Z</time>
      </trkpt>
      <trkpt lat="47.51594" lon="6.71037">
        <ele>417.6</ele>
        <time>2022-05-02T17:12:41.683Z</time>
      </trkpt>
      <trkpt lat="47.51446" lon="6.70876">
        <ele>420.9</ele>
        <time>2022-05-02T17:13:27.985Z</time>
      </trkpt>
      <trkpt lat="47.51265" lon="6.70834">
        <ele>435.4</ele>
        <time>2022-05-02T17:14:51.385Z</time>
      </trkpt>
      <trkpt lat="47.51185" lon="6.71505">
        <ele>442</ele>
        <time>2022-05-02T17:16:42.977Z</time>
      </trkpt>
      <trkpt lat="47.51208" lon="6.71801">
        <ele>441.6</ele>
        <time>2022-05-02T17:17:24.112Z</time>
      </trkpt>
      <trkpt lat="47.51194" lon="6.71973">
        <ele>437.9</ele>
        <time>2022-05-02T17:17:38.322Z</time>
      </trkpt>
      <trkpt lat="47.5122" lon="6.72175">
        <ele>433.5</ele>
        <time>2022-05-02T17:17:55.179Z</time>
      </trkpt>
      <trkpt lat="47.51202" lon="6.72252">
        <ele>430.5</ele>
        <time>2022-05-02T17:18:00.585Z</time>
      </trkpt>
      <trkpt lat="47.51183" lon="6.72432">
        <ele>427.4</ele>
        <time>2022-05-02T17:18:16.591Z</time>
      </trkpt>
      <trkpt lat="47.51171" lon="6.72495">
        <ele>426.2</ele>
        <time>2022-05-02T17:18:22.220Z</time>
      </trkpt>
      <trkpt lat="47.50933" lon="6.72914">
        <ele>422.4</ele>
        <time>2022-05-02T17:19:19.814Z</time>
      </trkpt>
      <trkpt lat="47.50793" lon="6.73139">
        <ele>412.1</ele>
        <time>2022-05-02T17:19:40.935Z</time>
      </trkpt>
      <trkpt lat="47.50754" lon="6.73233">
        <ele>404.4</ele>
        <time>2022-05-02T17:19:48.189Z</time>
      </trkpt>
      <trkpt lat="47.50675" lon="6.73396">
        <ele>390.3</ele>
        <time>2022-05-02T17:20:01.381Z</time>
      </trkpt>
      <trkpt lat="47.50643" lon="6.73546">
        <ele>371</ele>
        <time>2022-05-02T17:20:11.725Z</time>
      </trkpt>
      <trkpt lat="47.50663" lon="6.73636">
        <ele>363.7</ele>
        <time>2022-05-02T17:20:17.955Z</time>
      </trkpt>
      <trkpt lat="47.50572" lon="6.74076">
        <ele>354.2</ele>
        <time>2022-05-02T17:20:56.120Z</time>
      </trkpt>
      <trkpt lat="47.50494" lon="6.74333">
        <ele>357.8</ele>
        <time>2022-05-02T17:21:44.608Z</time>
      </trkpt>
      <trkpt lat="47.50407" lon="6.74392">
        <ele>359.6</ele>
        <time>2022-05-02T17:22:08.960Z</time>
      </trkpt>
      <trkpt lat="47.50368" lon="6.74565">
        <ele>355</ele>
        <time>2022-05-02T17:22:23.088Z</time>
      </trkpt>
      <trkpt lat="47.50375" lon="6.74784">
        <ele>352</ele>
        <time>2022-05-02T17:22:43.464Z</time>
      </trkpt>
      <trkpt lat="47.50363" lon="6.74881">
        <ele>350.4</ele>
        <time>2022-05-02T17:22:52.243Z</time>
      </trkpt>
      <trkpt lat="47.50298" lon="6.75004">
        <ele>343.1</ele>
        <time>2022-05-02T17:23:02.513Z</time>
      </trkpt>
      <trkpt lat="47.50251" lon="6.75021">
        <ele>336</ele>
        <time>2022-05-02T17:23:07.223Z</time>
      </trkpt>
      <trkpt lat="47.5021" lon="6.75013">
        <ele>329.7</ele>
        <time>2022-05-02T17:23:11.248Z</time>
      </trkpt>
      <trkpt lat="47.50172" lon="6.75047">
        <ele>327.8</ele>
        <time>2022-05-02T17:23:16.083Z</time>
      </trkpt>
      <trkpt lat="47.50185" lon="6.75151">
        <ele>324.2</ele>
        <time>2022-05-02T17:23:23.352Z</time>
      </trkpt>
      <trkpt lat="47.50121" lon="6.75173">
        <ele>322.8</ele>
        <time>2022-05-02T17:23:32.282Z</time>
      </trkpt>
      <trkpt lat="47.50082" lon="6.75181">
        <ele>322.5</ele>
        <time>2022-05-02T17:23:38.638Z</time>
      </trkpt>
      <trkpt lat="47.50074" lon="6.7519">
        <ele>322.2</ele>
        <time>2022-05-02T17:23:39.880Z</time>
      </trkpt>
      <trkpt lat="47.50014" lon="6.75289">
        <ele>320.2</ele>
        <time>2022-05-02T17:23:51.959Z</time>
      </trkpt>
      <trkpt lat="47.50002" lon="6.75345">
        <ele>322</ele>
        <time>2022-05-02T17:24:06.144Z</time>
      </trkpt>
      <trkpt lat="47.50005" lon="6.7549">
        <ele>334.2</ele>
        <time>2022-05-02T17:25:16.643Z</time>
      </trkpt>
      <trkpt lat="47.50022" lon="6.75512">
        <ele>332.5</ele>
        <time>2022-05-02T17:25:18.842Z</time>
      </trkpt>
      <trkpt lat="47.50075" lon="6.75651">
        <ele>340.1</ele>
        <time>2022-05-02T17:26:04.709Z</time>
      </trkpt>
      <trkpt lat="47.50118" lon="6.75749">
        <ele>349.6</ele>
        <time>2022-05-02T17:26:58.637Z</time>
      </trkpt>
      <trkpt lat="47.50101" lon="6.75844">
        <ele>363.3</ele>
        <time>2022-05-02T17:27:52.575Z</time>
      </trkpt>
      <trkpt lat="47.50034" lon="6.75871">
        <ele>370.8</ele>
        <time>2022-05-02T17:28:33.828Z</time>
      </trkpt>
      <trkpt lat="47.50019" lon="6.75978">
        <ele>380.7</ele>
        <time>2022-05-02T17:29:33.806Z</time>
      </trkpt>
      <trkpt lat="47.50057" lon="6.76116">
        <ele>387.1</ele>
        <time>2022-05-02T17:30:14.502Z</time>
      </trkpt>
      <trkpt lat="47.50098" lon="6.7624">
        <ele>390.7</ele>
        <time>2022-05-02T17:30:44.890Z</time>
      </trkpt>
      <trkpt lat="47.5023" lon="6.76616">
        <ele>400</ele>
        <time>2022-05-02T17:32:10.728Z</time>
      </trkpt>
      <trkpt lat="47.50248" lon="6.76642">
        <ele>401</ele>
        <time>2022-05-02T17:32:19.059Z</time>
      </trkpt>
      <trkpt lat="47.50314" lon="6.76598">
        <ele>397.9</ele>
        <time>2022-05-02T17:32:26.938Z</time>
      </trkpt>
      <trkpt lat="47.50352" lon="6.76595">
        <ele>397.4</ele>
        <time>2022-05-02T17:32:32.649Z</time>
      </trkpt>
      <trkpt lat="47.50354" lon="6.76586">
        <ele>397.1</ele>
        <time>2022-05-02T17:32:33.320Z</time>
      </trkpt>
      <trkpt lat="47.50474" lon="6.76516">
        <ele>403.1</ele>
        <time>2022-05-02T17:33:19.763Z</time>
      </trkpt>
      <trkpt lat="47.50511" lon="6.76508">
        <ele>404</ele>
        <time>2022-05-02T17:33:29.866Z</time>
      </trkpt>
      <trkpt lat="47.50517" lon="6.76676">
        <ele>399.9</ele>
        <time>2022-05-02T17:33:43.060Z</time>
      </trkpt>
      <trkpt lat="47.50528" lon="6.76685">
        <ele>399.7</ele>
        <time>2022-05-02T17:33:44.882Z</time>
      </trkpt>
      <trkpt lat="47.50569" lon="6.76675">
        <ele>399.7</ele>
        <time>2022-05-02T17:33:53.634Z</time>
      </trkpt>
      <trkpt lat="47.50605" lon="6.76661">
        <ele>397.9</ele>
        <time>2022-05-02T17:33:57.488Z</time>
      </trkpt>
      <trkpt lat="47.50658" lon="6.76639">
        <ele>394.6</ele>
        <time>2022-05-02T17:34:02.660Z</time>
      </trkpt>
      <trkpt lat="47.5068" lon="6.76638">
        <ele>393.6</ele>
        <time>2022-05-02T17:34:05.000Z</time>
      </trkpt>
      <trkpt lat="47.50724" lon="6.76636">
        <ele>393.2</ele>
        <time>2022-05-02T17:34:11.966Z</time>
      </trkpt>
      <trkpt lat="47.50782" lon="6.76726">
        <ele>390.6</ele>
        <time>2022-05-02T17:34:22.241Z</time>
      </trkpt>
      <trkpt lat="47.50789" lon="6.76766">
        <ele>388.2</ele>
        <time>2022-05-02T17:34:24.958Z</time>
      </trkpt>
      <trkpt lat="47.50801" lon="6.76786">
        <ele>387</ele>
        <time>2022-05-02T17:34:26.573Z</time>
      </trkpt>
      <trkpt lat="47.50833" lon="6.76851">
        <ele>384.3</ele>
        <time>2022-05-02T17:34:32.133Z</time>
      </trkpt>
      <trkpt lat="47.50928" lon="6.76951">
        <ele>379.3</ele>
        <time>2022-05-02T17:34:44.813Z</time>
      </trkpt>
      <trkpt lat="47.50954" lon="6.76957">
        <ele>379.1</ele>
        <time>2022-05-02T17:34:49.062Z</time>
      </trkpt>
      <trkpt lat="47.5098" lon="6.76953">
        <ele>378.9</ele>
        <time>2022-05-02T17:34:53.280Z</time>
      </trkpt>
      <trkpt lat="47.51019" lon="6.76947">
        <ele>378.3</ele>
        <time>2022-05-02T17:34:59.006Z</time>
      </trkpt>
      <trkpt lat="47.5105" lon="6.76972">
        <ele>378</ele>
        <time>2022-05-02T17:35:04.637Z</time>
      </trkpt>
      <trkpt lat="47.51085" lon="6.77005">
        <ele>378</ele>
        <time>2022-05-02T17:35:13.377Z</time>
      </trkpt>
      <trkpt lat="47.51154" lon="6.7708">
        <ele>379.1</ele>
        <time>2022-05-02T17:35:33.811Z</time>
      </trkpt>
      <trkpt lat="47.51157" lon="6.77082">
        <ele>379.3</ele>
        <time>2022-05-02T17:35:35.115Z</time>
      </trkpt>
      <trkpt lat="47.5116" lon="6.77083">
        <ele>379.5</ele>
        <time>2022-05-02T17:35:36.371Z</time>
      </trkpt>
      <trkpt lat="47.51179" lon="6.77113">
        <ele>380.1</ele>
        <time>2022-05-02T17:35:43.665Z</time>
      </trkpt>
      <trkpt lat="47.51194" lon="6.77144">
        <ele>382</ele>
        <time>2022-05-02T17:35:54.901Z</time>
      </trkpt>
      <trkpt lat="47.51218" lon="6.77192">
        <ele>382.9</ele>
        <time>2022-05-02T17:36:05.579Z</time>
      </trkpt>
      <trkpt lat="47.51247" lon="6.77233">
        <ele>384.3</ele>
        <time>2022-05-02T17:36:17.996Z</time>
      </trkpt>
      <trkpt lat="47.51337" lon="6.77299">
        <ele>381.5</ele>
        <time>2022-05-02T17:36:30.682Z</time>
      </trkpt>
      <trkpt lat="47.514" lon="6.77258">
        <ele>375.9</ele>
        <time>2022-05-02T17:36:37.381Z</time>
      </trkpt>
      <trkpt lat="47.51432" lon="6.77223">
        <ele>373.5</ele>
        <time>2022-05-02T17:36:41.109Z</time>
      </trkpt>
      <trkpt lat="47.5146" lon="6.77208">
        <ele>374.3</ele>
        <time>2022-05-02T17:36:49.427Z</time>
      </trkpt>
      <trkpt lat="47.51473" lon="6.77232">
        <ele>374</ele>
        <time>2022-05-02T17:36:52.495Z</time>
      </trkpt>
      <trkpt lat="47.51509" lon="6.77258">
        <ele>376.7</ele>
        <time>2022-05-02T17:37:09.145Z</time>
      </trkpt>
      <trkpt lat="47.51546" lon="6.77235">
        <ele>378.8</ele>
        <time>2022-05-02T17:37:24.154Z</time>
      </trkpt>
      <trkpt lat="47.51569" lon="6.77225">
        <ele>379.2</ele>
        <time>2022-05-02T17:37:30.113Z</time>
      </trkpt>
      <trkpt lat="47.51622" lon="6.77367">
        <ele>385.6</ele>
        <time>2022-05-02T17:38:12.821Z</time>
      </trkpt>
      <trkpt lat="47.51639" lon="6.77414">
        <ele>387.9</ele>
        <time>2022-05-02T17:38:27.409Z</time>
      </trkpt>
      <trkpt lat="47.517" lon="6.77358">
        <ele>388.9</ele>
        <time>2022-05-02T17:38:44.737Z</time>
      </trkpt>
      <trkpt lat="47.51732" lon="6.77375">
        <ele>389.3</ele>
        <time>2022-05-02T17:38:52.763Z</time>
      </trkpt>
      <trkpt lat="47.51767" lon="6.77395">
        <ele>388.4</ele>
        <time>2022-05-02T17:38:57.708Z</time>
      </trkpt>
      <trkpt lat="47.51793" lon="6.77408">
        <ele>387.3</ele>
        <time>2022-05-02T17:39:00.773Z</time>
      </trkpt>
      <trkpt lat="47.51726" lon="6.77431">
        <ele>391.4</ele>
        <time>2022-05-02T17:39:27.806Z</time>
      </trkpt>
      <trkpt lat="47.5186" lon="6.77508">
        <ele>389</ele>
        <time>2022-05-02T17:39:48.439Z</time>
      </trkpt>
    </trkseg>
  </trk>
</gpx>